This is the latest recevied weather packets stored in our database for station/object KC3ULW-13. If no packets are shown the sender has not sent any weather packets the latest 10 day(s).
| Time | Temp. | Humidity | Pressure | Rain* | Wind** | Luminosity | Snow |
|---|---|---|---|---|---|---|---|
| 1777487887 | 16.67° C | 92% | 1008.3 hPa | 3.05 mm | - | 19 W/m² | - |
| 1777487281 | 16.67° C | 92% | 1008.1 hPa | 1.78 mm | - | 85 W/m² | - |
| 1777486674 | 17.22° C | 92% | 1008.4 hPa | 0 mm | - | 70 W/m² | - |
| 1777486372 | 17.22° C | 92% | 1008.4 hPa | 0 mm | - | 124 W/m² | - |
| 1777486069 | 17.78° C | 92% | 1008.5 hPa | 0 mm | - | 98 W/m² | - |
| 1777485765 | 17.78° C | 92% | 1008.4 hPa | 0 mm | - | 144 W/m² | - |
| 1777484248 | 17.78° C | 90% | 1008.3 hPa | 10.67 mm | - | 57 W/m² | - |
| 1777483944 | 17.78° C | 88% | 1008.5 hPa | 1.78 mm | - | 92 W/m² | - |
| 1777483031 | 18.33° C | 87% | 1008.7 hPa | 0 mm | - | 188 W/m² | - |
| 1777482424 | 18.33° C | 87% | 1009 hPa | 0 mm | - | 188 W/m² | - |
| 1777482122 | 18.33° C | 88% | 1009.3 hPa | 0 mm | - | 173 W/m² | - |
| 1777481820 | 18.33° C | 89% | 1009.2 hPa | 0 mm | - | 393 W/m² | - |
| 1777480606 | 17.22° C | 92% | 1009.9 hPa | 0 mm | - | 239 W/m² | - |
| 1777480303 | 17.22° C | 93% | 1010 hPa | 0 mm | - | 189 W/m² | - |
| 1777479999 | 16.67° C | 93% | 1010.2 hPa | 0 mm | - | 152 W/m² | - |
| 1777478181 | 16.67° C | 94% | 1010.7 hPa | 0 mm | - | 173 W/m² | - |
| 1777476360 | 15.56° C | 94% | 1011.1 hPa | 1.27 mm | - | 97 W/m² | - |
| 1777471199 | 14.44° C | 94% | 1012 hPa | 0 mm | - | 106 W/m² | - |
| 1777470896 | 15° C | 93% | 1011.8 hPa | 0 mm | - | 161 W/m² | - |
| 1777469681 | 13.89° C | 93% | 1012.1 hPa | 1.78 mm | - | 115 W/m² | - |
| 1777469377 | 13.89° C | 92% | 1012.3 hPa | 1.78 mm | - | 75 W/m² | - |
| 1777469072 | 13.89° C | 92% | 1012.2 hPa | 3.05 mm | - | 32 W/m² | - |
| 1777468767 | 13.89° C | 92% | 1012.2 hPa | 3.05 mm | - | 22 W/m² | - |
| 1777468464 | 13.33° C | 92% | 1012.3 hPa | 3.05 mm | - | 17 W/m² | - |
| 1777468161 | 13.33° C | 91% | 1012.4 hPa | 4.83 mm | - | 19 W/m² | - |
* Rain latest hour (hover to see other rain measurements)
** Current wind speed in m/s (hover to see current wind gust speed)